sensor_id;sensor_type;location;lat;lon;timestamp;pressure;altitude;pressure_sealevel;temperature;humidity
77062;BME280;65989;51.686;5.138;2023-01-29T00:02:03;103180.69;;;1.68;82.58
77062;BME280;65989;51.686;5.138;2023-01-29T00:04:29;103185.63;;;1.71;82.07
77062;BME280;65989;51.686;5.138;2023-01-29T00:06:55;103174.38;;;1.60;82.24
77062;BME280;65989;51.686;5.138;2023-01-29T00:09:20;103175.97;;;1.42;82.07
77062;BME280;65989;51.686;5.138;2023-01-29T00:11:46;103165.03;;;1.17;81.75
77062;BME280;65989;51.686;5.138;2023-01-29T00:14:11;103160.16;;;1.02;82.06
77062;BME280;65989;51.686;5.138;2023-01-29T00:16:37;103160.63;;;0.86;81.89
77062;BME280;65989;51.686;5.138;2023-01-29T00:19:03;103159.19;;;0.72;81.72
77062;BME280;65989;51.686;5.138;2023-01-29T00:21:28;103169.72;;;0.61;81.90
77062;BME280;65989;51.686;5.138;2023-01-29T00:23:58;103165.53;;;0.49;81.66
77062;BME280;65989;51.686;5.138;2023-01-29T00:26:24;103164.13;;;0.44;81.81
77062;BME280;65989;51.686;5.138;2023-01-29T00:28:50;103153.50;;;0.36;81.57
77062;BME280;65989;51.686;5.138;2023-01-29T00:31:21;103149.75;;;0.29;81.55
77062;BME280;65989;51.686;5.138;2023-01-29T00:33:47;103144.47;;;0.19;81.61
77062;BME280;65989;51.686;5.138;2023-01-29T00:36:14;103142.38;;;0.13;81.63
77062;BME280;65989;51.686;5.138;2023-01-29T00:38:40;103140.28;;;0.07;81.55
77062;BME280;65989;51.686;5.138;2023-01-29T00:41:13;103131.16;;;0.01;81.65
77062;BME280;65989;51.686;5.138;2023-01-29T00:43:58;103128.81;;;-0.02;81.53
77062;BME280;65989;51.686;5.138;2023-01-29T00:46:42;103134.03;;;-0.02;81.38
77062;BME280;65989;51.686;5.138;2023-01-29T00:49:08;103133.34;;;-0.04;81.32
77062;BME280;65989;51.686;5.138;2023-01-29T00:51:35;103132.50;;;-0.05;81.47
77062;BME280;65989;51.686;5.138;2023-01-29T00:54:03;103125.50;;;-0.04;81.54
77062;BME280;65989;51.686;5.138;2023-01-29T00:56:31;103132.38;;;-0.03;81.31
77062;BME280;65989;51.686;5.138;2023-01-29T00:58:57;103126.22;;;-0.02;81.51
77062;BME280;65989;51.686;5.138;2023-01-29T01:01:23;103133.66;;;0.03;81.46
77062;BME280;65989;51.686;5.138;2023-01-29T01:04:09;103134.47;;;0.03;81.53
77062;BME280;65989;51.686;5.138;2023-01-29T01:06:41;103132.69;;;0.04;81.53
77062;BME280;65989;51.686;5.138;2023-01-29T01:09:08;103131.50;;;0.08;81.77
77062;BME280;65989;51.686;5.138;2023-01-29T01:11:52;103130.28;;;0.12;81.55
77062;BME280;65989;51.686;5.138;2023-01-29T01:14:18;103126.59;;;0.14;81.76
77062;BME280;65989;51.686;5.138;2023-01-29T01:16:44;103124.00;;;0.14;81.28
77062;BME280;65989;51.686;5.138;2023-01-29T01:19:11;103125.41;;;0.19;81.44
77062;BME280;65989;51.686;5.138;2023-01-29T01:21:37;103126.91;;;0.21;81.65
77062;BME280;65989;51.686;5.138;2023-01-29T01:24:02;103121.59;;;0.23;81.47
77062;BME280;65989;51.686;5.138;2023-01-29T01:26:30;103112.09;;;0.22;81.34
77062;BME280;65989;51.686;5.138;2023-01-29T01:28:56;103115.41;;;0.24;81.21
77062;BME280;65989;51.686;5.138;2023-01-29T01:31:21;103118.59;;;0.27;81.28
77062;BME280;65989;51.686;5.138;2023-01-29T01:33:46;103119.28;;;0.29;81.28
77062;BME280;65989;51.686;5.138;2023-01-29T01:36:12;103127.81;;;0.32;81.72
77062;BME280;65989;51.686;5.138;2023-01-29T01:38:38;103120.81;;;0.32;81.51
77062;BME280;65989;51.686;5.138;2023-01-29T01:41:10;103123.16;;;0.35;81.18
77062;BME280;65989;51.686;5.138;2023-01-29T01:46:14;103115.06;;;0.38;81.28
77062;BME280;65989;51.686;5.138;2023-01-29T01:48:40;103116.88;;;0.38;81.16
77062;BME280;65989;51.686;5.138;2023-01-29T01:51:06;103122.66;;;0.41;81.46
77062;BME280;65989;51.686;5.138;2023-01-29T01:53:46;103130.22;;;0.44;81.34
77062;BME280;65989;51.686;5.138;2023-01-29T01:56:19;103134.47;;;0.46;81.54
77062;BME280;65989;51.686;5.138;2023-01-29T01:58:50;103135.44;;;0.44;81.44
77062;BME280;65989;51.686;5.138;2023-01-29T02:01:16;103145.63;;;0.48;81.15
77062;BME280;65989;51.686;5.138;2023-01-29T02:04:13;103140.28;;;0.49;81.04
77062;BME280;65989;51.686;5.138;2023-01-29T02:07:02;103140.41;;;0.48;81.45
77062;BME280;65989;51.686;5.138;2023-01-29T02:10:09;103145.38;;;0.51;81.31
77062;BME280;65989;51.686;5.138;2023-01-29T02:12:37;103141.09;;;0.50;81.13
77062;BME280;65989;51.686;5.138;2023-01-29T02:15:03;103147.81;;;0.52;81.42
77062;BME280;65989;51.686;5.138;2023-01-29T02:17:28;103143.56;;;0.51;81.32
77062;BME280;65989;51.686;5.138;2023-01-29T02:20:25;103135.38;;;0.56;81.45
77062;BME280;65989;51.686;5.138;2023-01-29T02:26:28;103130.97;;;0.56;81.29
77062;BME280;65989;51.686;5.138;2023-01-29T02:29:19;103137.03;;;0.57;81.10
77062;BME280;65989;51.686;5.138;2023-01-29T02:32:01;103138.69;;;0.58;81.38
77062;BME280;65989;51.686;5.138;2023-01-29T02:37:02;103129.31;;;0.55;81.17
77062;BME280;65989;51.686;5.138;2023-01-29T02:40:33;103136.50;;;0.63;81.41
77062;BME280;65989;51.686;5.138;2023-01-29T02:42:43;103134.97;;;0.61;81.23
77062;BME280;65989;51.686;5.138;2023-01-29T02:45:17;103120.28;;;0.59;81.17
77062;BME280;65989;51.686;5.138;2023-01-29T02:47:57;103126.06;;;0.63;81.18
77062;BME280;65989;51.686;5.138;2023-01-29T02:58:23;103116.34;;;0.65;81.11
77062;BME280;65989;51.686;5.138;2023-01-29T03:00:53;103110.41;;;0.63;81.32
77062;BME280;65989;51.686;5.138;2023-01-29T03:03:35;103112.06;;;0.64;81.27
77062;BME280;65989;51.686;5.138;2023-01-29T03:06:07;103107.94;;;0.62;81.14
77062;BME280;65989;51.686;5.138;2023-01-29T03:08:46;103118.09;;;0.65;81.19
77062;BME280;65989;51.686;5.138;2023-01-29T03:11:15;103109.63;;;0.72;81.27
77062;BME280;65989;51.686;5.138;2023-01-29T03:14:05;103120.06;;;0.72;80.98
77062;BME280;65989;51.686;5.138;2023-01-29T03:16:54;103108.09;;;0.70;81.27
77062;BME280;65989;51.686;5.138;2023-01-29T03:19:26;103113.44;;;0.68;80.86
77062;BME280;65989;51.686;5.138;2023-01-29T03:22:03;103103.28;;;0.65;81.16
77062;BME280;65989;51.686;5.138;2023-01-29T03:24:44;103096.53;;;0.63;80.96
77062;BME280;65989;51.686;5.138;2023-01-29T03:27:37;103102.34;;;0.66;81.26
77062;BME280;65989;51.686;5.138;2023-01-29T03:30:24;103110.56;;;0.71;81.10
77062;BME280;65989;51.686;5.138;2023-01-29T03:33:11;103116.06;;;0.68;80.77
77062;BME280;65989;51.686;5.138;2023-01-29T03:35:43;103111.53;;;0.70;80.82
77062;BME280;65989;51.686;5.138;2023-01-29T03:38:12;103109.50;;;0.74;80.94
77062;BME280;65989;51.686;5.138;2023-01-29T03:40:46;103105.94;;;0.75;80.85
77062;BME280;65989;51.686;5.138;2023-01-29T03:51:26;103090.56;;;0.82;80.71
77062;BME280;65989;51.686;5.138;2023-01-29T03:56:45;103087.97;;;0.82;81.01
77062;BME280;65989;51.686;5.138;2023-01-29T03:59:30;103087.16;;;0.81;81.01
77062;BME280;65989;51.686;5.138;2023-01-29T04:02:00;103074.72;;;0.73;81.02
77062;BME280;65989;51.686;5.138;2023-01-29T04:04:29;103069.84;;;0.80;80.77
77062;BME280;65989;51.686;5.138;2023-01-29T04:07:01;103054.81;;;0.72;80.92
77062;BME280;65989;51.686;5.138;2023-01-29T04:09:41;103063.66;;;0.81;80.78
77062;BME280;65989;51.686;5.138;2023-01-29T04:12:09;103053.16;;;0.71;80.77
77062;BME280;65989;51.686;5.138;2023-01-29T04:14:36;103068.69;;;0.73;81.06
77062;BME280;65989;51.686;5.138;2023-01-29T04:17:14;103073.66;;;0.76;81.00
77062;BME280;65989;51.686;5.138;2023-01-29T04:19:41;103075.06;;;0.80;81.13
77062;BME280;65989;51.686;5.138;2023-01-29T04:22:36;103076.00;;;0.79;80.77
77062;BME280;65989;51.686;5.138;2023-01-29T04:25:06;103072.81;;;0.76;80.96
77062;BME280;65989;51.686;5.138;2023-01-29T04:28:08;103076.84;;;0.89;81.04
77062;BME280;65989;51.686;5.138;2023-01-29T04:41:45;103019.94;;;0.83;80.77
77062;BME280;65989;51.686;5.138;2023-01-29T04:44:35;103031.38;;;0.82;80.95
77062;BME280;65989;51.686;5.138;2023-01-29T04:47:23;103013.22;;;0.81;80.93
77062;BME280;65989;51.686;5.138;2023-01-29T04:50:02;103023.66;;;0.81;80.74
77062;BME280;65989;51.686;5.138;2023-01-29T04:55:53;103018.44;;;0.81;80.73
77062;BME280;65989;51.686;5.138;2023-01-29T04:58:46;103028.34;;;0.87;80.75
77062;BME280;65989;51.686;5.138;2023-01-29T05:01:15;103013.38;;;0.79;80.73
77062;BME280;65989;51.686;5.138;2023-01-29T05:03:46;103012.41;;;0.80;80.74
77062;BME280;65989;51.686;5.138;2023-01-29T05:06:15;103013.91;;;0.83;80.81
77062;BME280;65989;51.686;5.138;2023-01-29T05:08:44;102997.56;;;0.81;80.73
77062;BME280;65989;51.686;5.138;2023-01-29T05:11:12;103002.66;;;0.82;80.60
77062;BME280;65989;51.686;5.138;2023-01-29T05:13:40;102997.56;;;0.81;80.71
77062;BME280;65989;51.686;5.138;2023-01-29T05:16:13;103008.28;;;0.87;80.93
77062;BME280;65989;51.686;5.138;2023-01-29T05:18:41;102984.66;;;0.79;80.64
77062;BME280;65989;51.686;5.138;2023-01-29T05:21:10;102992.63;;;0.87;80.66
77062;BME280;65989;51.686;5.138;2023-01-29T05:23:35;102974.91;;;0.81;80.83
77062;BME280;65989;51.686;5.138;2023-01-29T05:26:02;102978.34;;;0.82;80.78
77062;BME280;65989;51.686;5.138;2023-01-29T05:28:28;102984.41;;;0.92;80.55
77062;BME280;65989;51.686;5.138;2023-01-29T05:30:55;102974.22;;;0.89;80.68
77062;BME280;65989;51.686;5.138;2023-01-29T05:33:29;102978.91;;;0.95;80.64
77062;BME280;65989;51.686;5.138;2023-01-29T05:35:57;102974.22;;;0.89;80.77
77062;BME280;65989;51.686;5.138;2023-01-29T05:38:23;102984.25;;;0.94;80.81
77062;BME280;65989;51.686;5.138;2023-01-29T05:40:49;102978.50;;;0.90;80.42
77062;BME280;65989;51.686;5.138;2023-01-29T05:43:18;103009.69;;;1.01;80.52
77062;BME280;65989;51.686;5.138;2023-01-29T05:45:52;102990.59;;;0.91;80.43
77062;BME280;65989;51.686;5.138;2023-01-29T05:48:18;103013.25;;;1.00;80.64
77062;BME280;65989;51.686;5.138;2023-01-29T05:50:43;103007.06;;;1.01;80.54
77062;BME280;65989;51.686;5.138;2023-01-29T05:53:09;103006.94;;;1.03;80.39
77062;BME280;65989;51.686;5.138;2023-01-29T05:55:50;102999.53;;;0.98;80.35
77062;BME280;65989;51.686;5.138;2023-01-29T05:58:47;103003.13;;;1.07;80.64
77062;BME280;65989;51.686;5.138;2023-01-29T06:01:15;103001.47;;;1.06;80.39
77062;BME280;65989;51.686;5.138;2023-01-29T06:03:44;102997.31;;;1.03;80.26
77062;BME280;65989;51.686;5.138;2023-01-29T06:06:10;102991.41;;;1.01;80.62
77062;BME280;65989;51.686;5.138;2023-01-29T06:08:41;102997.91;;;1.07;80.34
77062;BME280;65989;51.686;5.138;2023-01-29T06:11:09;103003.38;;;1.04;80.52
77062;BME280;65989;51.686;5.138;2023-01-29T06:13:34;103015.47;;;1.05;80.60
77062;BME280;65989;51.686;5.138;2023-01-29T06:16:03;103018.38;;;1.12;80.46
77062;BME280;65989;51.686;5.138;2023-01-29T06:18:29;103010.09;;;1.07;80.60
77062;BME280;65989;51.686;5.138;2023-01-29T06:20:59;103016.03;;;1.09;80.58
77062;BME280;65989;51.686;5.138;2023-01-29T06:23:25;103018.78;;;1.17;80.66
77062;BME280;65989;51.686;5.138;2023-01-29T06:25:53;103008.34;;;1.17;80.52
77062;BME280;65989;51.686;5.138;2023-01-29T06:28:31;102991.72;;;1.18;80.47
77062;BME280;65989;51.686;5.138;2023-01-29T06:30:58;102975.50;;;1.14;80.72
77062;BME280;65989;51.686;5.138;2023-01-29T06:33:24;102977.53;;;1.21;80.62
77062;BME280;65989;51.686;5.138;2023-01-29T06:36:01;102976.84;;;1.18;80.24
77062;BME280;65989;51.686;5.138;2023-01-29T06:38:27;102979.88;;;1.14;80.54
77062;BME280;65989;51.686;5.138;2023-01-29T06:40:53;102983.88;;;1.18;80.27
77062;BME280;65989;51.686;5.138;2023-01-29T06:43:19;102985.53;;;1.19;80.15
77062;BME280;65989;51.686;5.138;2023-01-29T06:45:55;102982.91;;;1.19;80.19
77062;BME280;65989;51.686;5.138;2023-01-29T06:48:23;102983.88;;;1.18;80.35
77062;BME280;65989;51.686;5.138;2023-01-29T06:50:49;102989.91;;;1.18;80.37
77062;BME280;65989;51.686;5.138;2023-01-29T06:53:16;102995.56;;;1.24;80.41
77062;BME280;65989;51.686;5.138;2023-01-29T06:55:43;102984.84;;;1.17;80.29
77062;BME280;65989;51.686;5.138;2023-01-29T06:58:10;102967.78;;;1.13;79.96
77062;BME280;65989;51.686;5.138;2023-01-29T07:00:37;102965.19;;;1.13;79.96
77062;BME280;65989;51.686;5.138;2023-01-29T07:03:03;102954.72;;;1.13;79.75
77062;BME280;65989;51.686;5.138;2023-01-29T07:05:29;102969.16;;;1.17;80.30
77062;BME280;65989;51.686;5.138;2023-01-29T07:07:58;102984.41;;;1.22;79.82
77062;BME280;65989;51.686;5.138;2023-01-29T07:10:23;102983.03;;;1.17;79.97
77062;BME280;65989;51.686;5.138;2023-01-29T07:12:49;102989.63;;;1.22;79.94
77062;BME280;65989;51.686;5.138;2023-01-29T07:15:14;102973.44;;;1.18;79.67
77062;BME280;65989;51.686;5.138;2023-01-29T07:17:55;102980.03;;;1.22;79.69
77062;BME280;65989;51.686;5.138;2023-01-29T07:20:20;102977.84;;;1.27;79.86
77062;BME280;65989;51.686;5.138;2023-01-29T07:22:46;102980.44;;;1.27;79.73
77062;BME280;65989;51.686;5.138;2023-01-29T07:25:11;102979.75;;;1.25;79.59
77062;BME280;65989;51.686;5.138;2023-01-29T07:27:39;102983.34;;;1.24;79.79
77062;BME280;65989;51.686;5.138;2023-01-29T07:30:05;102970.13;;;1.26;79.69
77062;BME280;65989;51.686;5.138;2023-01-29T07:32:31;102977.56;;;1.30;79.37
77062;BME280;65989;51.686;5.138;2023-01-29T07:34:57;102980.19;;;1.30;79.66
77062;BME280;65989;51.686;5.138;2023-01-29T07:37:22;102961.47;;;1.25;79.45
77062;BME280;65989;51.686;5.138;2023-01-29T07:39:48;102967.13;;;1.30;79.36
77062;BME280;65989;51.686;5.138;2023-01-29T07:42:13;102970.28;;;1.34;79.42
77062;BME280;65989;51.686;5.138;2023-01-29T07:44:38;102961.19;;;1.28;79.37
77062;BME280;65989;51.686;5.138;2023-01-29T07:47:04;102967.94;;;1.31;79.42
77062;BME280;65989;51.686;5.138;2023-01-29T07:49:29;102964.34;;;1.32;79.42
77062;BME280;65989;51.686;5.138;2023-01-29T07:51:58;102959.97;;;1.32;79.22
77062;BME280;65989;51.686;5.138;2023-01-29T07:54:25;102952.13;;;1.32;79.22
77062;BME280;65989;51.686;5.138;2023-01-29T07:56:51;102962.00;;;1.39;79.05
77062;BME280;65989;51.686;5.138;2023-01-29T07:59:19;102965.47;;;1.39;79.15
77062;BME280;65989;51.686;5.138;2023-01-29T08:01:45;102969.28;;;1.45;79.12
77062;BME280;65989;51.686;5.138;2023-01-29T08:04:10;102962.41;;;1.44;79.05
77062;BME280;65989;51.686;5.138;2023-01-29T08:06:38;102953.88;;;1.52;78.92
77062;BME280;65989;51.686;5.138;2023-01-29T08:09:31;102935.75;;;1.50;79.21
77062;BME280;65989;51.686;5.138;2023-01-29T08:12:14;102958.53;;;1.58;79.11
77062;BME280;65989;51.686;5.138;2023-01-29T08:15:03;102944.25;;;1.52;78.66
77062;BME280;65989;51.686;5.138;2023-01-29T08:17:40;102952.06;;;1.62;78.89
77062;BME280;65989;51.686;5.138;2023-01-29T08:24:06;102940.53;;;1.64;78.77
77062;BME280;65989;51.686;5.138;2023-01-29T08:26:32;102929.13;;;1.66;78.63
77062;BME280;65989;51.686;5.138;2023-01-29T08:29:00;102942.00;;;1.77;78.46
77062;BME280;65989;51.686;5.138;2023-01-29T08:31:25;102923.44;;;1.70;78.43
77062;BME280;65989;51.686;5.138;2023-01-29T08:33:53;102915.19;;;1.75;78.20
77062;BME280;65989;51.686;5.138;2023-01-29T08:36:19;102917.38;;;1.79;78.25
77062;BME280;65989;51.686;5.138;2023-01-29T08:38:44;102911.59;;;1.76;77.81
77062;BME280;65989;51.686;5.138;2023-01-29T08:41:10;102910.34;;;1.80;77.75
77062;BME280;65989;51.686;5.138;2023-01-29T08:43:35;102928.59;;;1.90;77.89
77062;BME280;65989;51.686;5.138;2023-01-29T08:46:05;102923.94;;;1.93;77.59
77062;BME280;65989;51.686;5.138;2023-01-29T08:48:31;102923.09;;;1.93;77.37
77062;BME280;65989;51.686;5.138;2023-01-29T08:50:57;102922.38;;;2.01;77.64
77062;BME280;65989;51.686;5.138;2023-01-29T08:53:23;102922.25;;;2.02;77.68
77062;BME280;65989;51.686;5.138;2023-01-29T08:55:53;102928.28;;;2.03;77.34
77062;BME280;65989;51.686;5.138;2023-01-29T08:58:19;102923.44;;;2.08;77.32
77062;BME280;65989;51.686;5.138;2023-01-29T09:00:44;102924.81;;;2.12;77.24
77062;BME280;65989;51.686;5.138;2023-01-29T09:03:10;102925.50;;;2.14;77.14
77062;BME280;65989;51.686;5.138;2023-01-29T09:05:37;102932.22;;;2.17;76.98
77062;BME280;65989;51.686;5.138;2023-01-29T09:08:03;102928.50;;;2.19;76.87
77062;BME280;65989;51.686;5.138;2023-01-29T09:10:29;102922.59;;;2.17;76.34
77062;BME280;65989;51.686;5.138;2023-01-29T09:12:54;102916.78;;;2.23;76.50
77062;BME280;65989;51.686;5.138;2023-01-29T09:15:20;102919.78;;;2.29;76.55
77062;BME280;65989;51.686;5.138;2023-01-29T09:17:45;102922.75;;;2.34;76.61
77062;BME280;65989;51.686;5.138;2023-01-29T09:20:11;102915.88;;;2.33;76.30
77062;BME280;65989;51.686;5.138;2023-01-29T09:22:36;102911.72;;;2.40;76.29
77062;BME280;65989;51.686;5.138;2023-01-29T09:25:02;102911.72;;;2.40;76.01
77062;BME280;65989;51.686;5.138;2023-01-29T09:27:27;102915.84;;;2.43;75.99
77062;BME280;65989;51.686;5.138;2023-01-29T09:29:53;102917.06;;;2.48;75.67
77062;BME280;65989;51.686;5.138;2023-01-29T09:32:18;102917.84;;;2.49;75.67
77062;BME280;65989;51.686;5.138;2023-01-29T09:34:43;102915.13;;;2.50;75.33
77062;BME280;65989;51.686;5.138;2023-01-29T09:37:09;102915.63;;;2.54;75.33
77062;BME280;65989;51.686;5.138;2023-01-29T09:39:34;102917.94;;;2.57;75.43
77062;BME280;65989;51.686;5.138;2023-01-29T09:47:11;102912.81;;;2.65;75.33
77062;BME280;65989;51.686;5.138;2023-01-29T09:49:40;102914.28;;;2.68;75.13
77062;BME280;65989;51.686;5.138;2023-01-29T09:52:15;102909.97;;;2.77;75.36
77062;BME280;65989;51.686;5.138;2023-01-29T09:57:23;102913.31;;;2.87;74.85
77062;BME280;65989;51.686;5.138;2023-01-29T09:59:50;102914.53;;;2.93;74.74
77062;BME280;65989;51.686;5.138;2023-01-29T10:02:46;102916.53;;;2.99;75.17
77062;BME280;65989;51.686;5.138;2023-01-29T10:10:45;102908.69;;;2.99;74.51
77062;BME280;65989;51.686;5.138;2023-01-29T10:13:56;102910.56;;;3.07;74.72
77062;BME280;65989;51.686;5.138;2023-01-29T10:16:59;102904.34;;;3.08;74.55
77062;BME280;65989;51.686;5.138;2023-01-29T10:27:17;102892.56;;;3.30;73.89
77062;BME280;65989;51.686;5.138;2023-01-29T10:29:43;102903.25;;;3.37;73.96
77062;BME280;65989;51.686;5.138;2023-01-29T10:32:17;102890.97;;;3.37;74.19
77062;BME280;65989;51.686;5.138;2023-01-29T10:35:19;102892.16;;;3.43;73.91
77062;BME280;65989;51.686;5.138;2023-01-29T10:37:46;102885.28;;;3.42;73.99
77062;BME280;65989;51.686;5.138;2023-01-29T10:40:21;102884.00;;;3.46;74.14
77062;BME280;65989;51.686;5.138;2023-01-29T10:43:05;102882.69;;;3.50;73.83
77062;BME280;65989;51.686;5.138;2023-01-29T10:48:43;102883.25;;;3.62;73.31
77062;BME280;65989;51.686;5.138;2023-01-29T10:51:55;102877.22;;;3.70;73.16
77062;BME280;65989;51.686;5.138;2023-01-29T10:57:41;102857.50;;;3.92;73.10
77062;BME280;65989;51.686;5.138;2023-01-29T11:00:24;102841.44;;;3.95;72.78
77062;BME280;65989;51.686;5.138;2023-01-29T11:02:51;102838.50;;;4.07;72.39
77062;BME280;65989;51.686;5.138;2023-01-29T11:05:31;102837.06;;;4.21;72.21
77062;BME280;65989;51.686;5.138;2023-01-29T11:08:10;102847.09;;;4.33;72.42
77062;BME280;65989;51.686;5.138;2023-01-29T11:10:42;102835.28;;;4.38;71.85
77062;BME280;65989;51.686;5.138;2023-01-29T11:13:13;102824.97;;;4.36;71.76
77062;BME280;65989;51.686;5.138;2023-01-29T11:15:38;102821.69;;;4.34;71.04
77062;BME280;65989;51.686;5.138;2023-01-29T11:18:05;102814.78;;;4.33;71.27
77062;BME280;65989;51.686;5.138;2023-01-29T11:20:34;102806.44;;;4.29;70.83
77062;BME280;65989;51.686;5.138;2023-01-29T11:23:00;102803.63;;;4.31;71.18
77062;BME280;65989;51.686;5.138;2023-01-29T11:25:28;102796.75;;;4.30;70.71
77062;BME280;65989;51.686;5.138;2023-01-29T11:27:58;102794.09;;;4.22;70.57
77062;BME280;65989;51.686;5.138;2023-01-29T11:30:37;102787.88;;;4.23;70.91
77062;BME280;65989;51.686;5.138;2023-01-29T11:33:22;102782.31;;;4.26;70.70
77062;BME280;65989;51.686;5.138;2023-01-29T11:35:48;102782.16;;;4.36;70.75
77062;BME280;65989;51.686;5.138;2023-01-29T11:40:48;102774.28;;;4.36;70.49
77062;BME280;65989;51.686;5.138;2023-01-29T11:45:42;102775.44;;;4.41;70.60
77062;BME280;65989;51.686;5.138;2023-01-29T11:48:15;102777.09;;;4.42;70.83
77062;BME280;65989;51.686;5.138;2023-01-29T11:50:41;102775.91;;;4.37;70.44
77062;BME280;65989;51.686;5.138;2023-01-29T11:53:21;102771.66;;;4.44;70.76
77062;BME280;65989;51.686;5.138;2023-01-29T11:55:48;102774.13;;;4.37;70.86
77062;BME280;65989;51.686;5.138;2023-01-29T11:58:30;102773.63;;;4.42;71.22
77062;BME280;65989;51.686;5.138;2023-01-29T12:00:57;102770.31;;;4.31;71.08
77062;BME280;65989;51.686;5.138;2023-01-29T12:05:58;102766.56;;;4.26;71.18
77062;BME280;65989;51.686;5.138;2023-01-29T12:08:32;102761.97;;;4.28;71.34
77062;BME280;65989;51.686;5.138;2023-01-29T12:11:31;102759.66;;;4.25;71.25
77062;BME280;65989;51.686;5.138;2023-01-29T12:13:58;102752.31;;;4.28;71.42
77062;BME280;65989;51.686;5.138;2023-01-29T12:16:38;102746.88;;;4.30;71.28
77062;BME280;65989;51.686;5.138;2023-01-29T12:22:05;102729.19;;;4.40;71.66
77062;BME280;65989;51.686;5.138;2023-01-29T12:24:48;102725.72;;;4.40;71.42
77062;BME280;65989;51.686;5.138;2023-01-29T12:32:51;102711.28;;;4.44;71.18
77062;BME280;65989;51.686;5.138;2023-01-29T12:35:29;102704.06;;;4.38;71.44
77062;BME280;65989;51.686;5.138;2023-01-29T12:38:17;102701.28;;;4.39;71.77
77062;BME280;65989;51.686;5.138;2023-01-29T12:43:25;102696.22;;;4.29;71.79
77062;BME280;65989;51.686;5.138;2023-01-29T12:45:54;102687.69;;;4.27;71.58
77062;BME280;65989;51.686;5.138;2023-01-29T12:48:41;102678.97;;;4.27;72.22
77062;BME280;65989;51.686;5.138;2023-01-29T12:51:13;102667.00;;;4.24;72.30
77062;BME280;65989;51.686;5.138;2023-01-29T12:53:51;102665.84;;;4.27;72.23
77062;BME280;65989;51.686;5.138;2023-01-29T12:56:29;102658.50;;;4.30;72.34
77062;BME280;65989;51.686;5.138;2023-01-29T12:58:59;102660.75;;;4.33;72.10
77062;BME280;65989;51.686;5.138;2023-01-29T13:01:39;102657.00;;;4.36;72.18
77062;BME280;65989;51.686;5.138;2023-01-29T13:06:40;102653.88;;;4.41;72.31
77062;BME280;65989;51.686;5.138;2023-01-29T13:09:13;102650.44;;;4.40;72.35
77062;BME280;65989;51.686;5.138;2023-01-29T13:17:08;102634.69;;;4.40;72.89
77062;BME280;65989;51.686;5.138;2023-01-29T13:19:39;102622.38;;;4.32;72.54
77062;BME280;65989;51.686;5.138;2023-01-29T13:22:17;102606.97;;;4.29;72.42
77062;BME280;65989;51.686;5.138;2023-01-29T13:24:44;102610.41;;;4.30;72.73
77062;BME280;65989;51.686;5.138;2023-01-29T13:27:20;102606.16;;;4.29;72.49
77062;BME280;65989;51.686;5.138;2023-01-29T13:29:46;102601.09;;;4.27;72.98
77062;BME280;65989;51.686;5.138;2023-01-29T13:32:25;102597.63;;;4.27;72.64
77062;BME280;65989;51.686;5.138;2023-01-29T13:34:57;102593.22;;;4.27;73.07
77062;BME280;65989;51.686;5.138;2023-01-29T13:37:31;102583.38;;;4.29;72.73
77062;BME280;65989;51.686;5.138;2023-01-29T13:39:58;102574.31;;;4.32;72.85
77062;BME280;65989;51.686;5.138;2023-01-29T13:45:05;102556.59;;;4.42;72.54
77062;BME280;65989;51.686;5.138;2023-01-29T13:47:34;102564.94;;;4.46;72.43
77062;BME280;65989;51.686;5.138;2023-01-29T13:50:23;102559.00;;;4.52;72.88
77062;BME280;65989;51.686;5.138;2023-01-29T13:52:53;102556.88;;;4.47;72.83
77062;BME280;65989;51.686;5.138;2023-01-29T13:55:23;102559.69;;;4.46;72.59
77062;BME280;65989;51.686;5.138;2023-01-29T13:57:55;102557.91;;;4.46;72.80
77062;BME280;65989;51.686;5.138;2023-01-29T14:07:58;102553.78;;;4.44;73.02
77062;BME280;65989;51.686;5.138;2023-01-29T14:10:26;102556.41;;;4.44;72.60
77062;BME280;65989;51.686;5.138;2023-01-29T14:12:54;102552.97;;;4.43;72.63
77062;BME280;65989;51.686;5.138;2023-01-29T14:15:39;102545.91;;;4.44;73.04
77062;BME280;65989;51.686;5.138;2023-01-29T14:23:07;102539.81;;;4.52;72.80
77062;BME280;65989;51.686;5.138;2023-01-29T14:25:42;102537.03;;;4.53;72.98
77062;BME280;65989;51.686;5.138;2023-01-29T14:28:17;102537.81;;;4.54;72.95
77062;BME280;65989;51.686;5.138;2023-01-29T14:30:48;102539.47;;;4.55;73.08
77062;BME280;65989;51.686;5.138;2023-01-29T14:33:37;102538.66;;;4.54;73.27
77062;BME280;65989;51.686;5.138;2023-01-29T14:36:08;102540.78;;;4.51;73.21
77062;BME280;65989;51.686;5.138;2023-01-29T14:38:36;102543.59;;;4.49;73.16
77062;BME280;65989;51.686;5.138;2023-01-29T14:41:28;102537.03;;;4.53;73.31
77062;BME280;65989;51.686;5.138;2023-01-29T14:47:01;102524.09;;;4.43;73.24
77062;BME280;65989;51.686;5.138;2023-01-29T14:49:57;102528.38;;;4.44;73.40
77062;BME280;65989;51.686;5.138;2023-01-29T14:52:37;102517.72;;;4.38;73.23
77062;BME280;65989;51.686;5.138;2023-01-29T14:55:08;102512.78;;;4.34;73.18
77062;BME280;65989;51.686;5.138;2023-01-29T14:57:35;102512.97;;;4.33;73.43
77062;BME280;65989;51.686;5.138;2023-01-29T15:00:25;102514.44;;;4.36;73.37
77062;BME280;65989;51.686;5.138;2023-01-29T15:02:52;102513.31;;;4.30;73.48
77062;BME280;65989;51.686;5.138;2023-01-29T15:05:21;102501.19;;;4.29;73.40
77062;BME280;65989;51.686;5.138;2023-01-29T15:10:37;102498.41;;;4.30;73.55
77062;BME280;65989;51.686;5.138;2023-01-29T15:13:14;102489.50;;;4.31;73.54
77062;BME280;65989;51.686;5.138;2023-01-29T15:15:47;102490.53;;;4.30;73.96
77062;BME280;65989;51.686;5.138;2023-01-29T15:18:28;102490.53;;;4.30;73.72
77062;BME280;65989;51.686;5.138;2023-01-29T15:21:03;102491.34;;;4.31;73.99
77062;BME280;65989;51.686;5.138;2023-01-29T15:23:31;102490.38;;;4.24;73.61
77062;BME280;65989;51.686;5.138;2023-01-29T15:26:03;102487.59;;;4.25;73.76
77062;BME280;65989;51.686;5.138;2023-01-29T15:28:32;102480.06;;;4.22;73.81